createdAt,value
2019-04-20T21:51:55.395Z,61.63
2019-04-20T21:52:51.969Z,62.10
2019-04-20T21:54:40.703Z,62.20
2019-04-20T21:55:41.865Z,62.20
2019-04-20T21:57:42.130Z,62.68
2019-04-20T21:58:43.556Z,62.10
2019-04-20T22:00:39.143Z,62.87
2019-04-20T22:01:34.502Z,62.68
2019-04-20T22:02:32.541Z,63.45
2019-04-20T22:03:29.993Z,63.73
2019-04-20T22:04:29.659Z,63.70
2019-04-20T22:05:30.356Z,63.80
2019-04-20T22:06:29.640Z,63.42
2019-04-20T22:07:30.481Z,63.70
2019-04-20T22:08:30.471Z,63.51
2019-04-20T22:09:34.524Z,63.99
2019-04-20T22:10:32.852Z,63.03
2019-04-20T22:11:29.675Z,63.60
2019-04-20T22:12:39.503Z,63.89
2019-04-20T22:13:36.426Z,63.80
2019-04-20T22:14:32.269Z,63.60
2019-04-20T22:15:32.993Z,64.18
2019-04-20T22:16:36.542Z,64.37
2019-04-20T22:17:33.177Z,64.76
2019-04-20T22:18:31.869Z,64.56
2019-04-20T22:19:38.723Z,64.76
2019-04-20T22:20:38.610Z,64.56
2019-04-20T22:22:47.113Z,64.76
2019-04-20T22:23:43.262Z,64.95
2019-04-20T22:24:44.969Z,64.85
2019-04-20T22:25:47.466Z,64.95
2019-04-20T22:26:39.434Z,65.14
2019-04-20T22:27:34.346Z,64.95
2019-04-20T22:28:29.814Z,65.14
2019-04-20T22:29:30.258Z,65.11
2019-04-20T22:30:30.300Z,65.01
2019-04-20T22:31:30.018Z,64.92
2019-04-20T22:32:30.073Z,65.01
2019-04-20T22:33:36.227Z,65.01
2019-04-20T22:34:30.199Z,65.20
2019-04-20T22:35:31.238Z,64.25
2019-04-20T22:36:35.564Z,64.82
2019-04-20T22:37:30.500Z,64.43
2019-04-20T22:38:30.820Z,63.76
2019-04-20T22:39:36.814Z,63.76
2019-04-20T22:40:33.058Z,63.57
2019-04-20T22:41:30.158Z,62.90
2019-04-20T22:42:31.356Z,63.86
2019-04-20T22:43:33.904Z,64.05
2019-04-20T22:44:32.387Z,63.32
2019-04-20T22:45:29.622Z,62.55
2019-04-20T22:46:33.683Z,62.65
2019-04-20T22:47:32.571Z,62.17
2019-04-20T22:48:29.534Z,59.87
2019-04-20T22:49:47.299Z,58.44
2019-04-20T22:50:44.858Z,57.12
2019-04-20T22:51:44.011Z,57.03
2019-04-20T22:53:44.206Z,55.90
2019-04-20T22:54:45.920Z,56.00
2019-04-20T22:56:00.351Z,55.62
2019-04-20T22:56:43.489Z,55.71
2019-04-20T22:57:43.318Z,55.33
2019-04-20T22:58:44.789Z,55.71
2019-04-20T22:59:38.407Z,55.33
2019-04-20T23:00:37.313Z,55.23
2019-04-20T23:01:37.543Z,54.66
2019-04-20T23:02:30.227Z,54.66
2019-04-20T23:03:30.568Z,54.37
2019-04-20T23:04:30.759Z,54.37
2019-04-20T23:05:29.371Z,54.27
2019-04-20T23:06:35.434Z,54.37
2019-04-20T23:07:30.659Z,54.30
2019-04-20T23:08:30.698Z,54.30
2019-04-20T23:09:32.850Z,54.68
2019-04-20T23:10:34.753Z,54.49
2019-04-20T23:11:33.274Z,53.91
2019-04-20T23:12:30.391Z,54.39
2019-04-20T23:13:35.040Z,54.30
2019-04-20T23:14:29.334Z,54.78
2019-04-20T23:15:30.154Z,54.75
2019-04-20T23:16:37.836Z,54.39
2019-04-20T23:17:35.971Z,54.27
2019-04-20T23:18:29.322Z,54.37
2019-04-20T23:19:38.245Z,54.56
2019-04-20T23:20:32.640Z,55.33
2019-04-20T23:21:29.964Z,55.23
2019-04-20T23:22:36.909Z,55.04
2019-04-20T23:23:30.982Z,55.33
2019-04-20T23:24:29.293Z,55.62
2019-04-20T23:25:29.348Z,55.90
2019-04-20T23:26:33.568Z,56.29
2019-04-20T23:27:31.739Z,56.38
2019-04-20T23:28:29.283Z,56.26
2019-04-20T23:29:34.000Z,56.35
2019-04-20T23:30:33.965Z,56.74
2019-04-20T23:31:30.749Z,57.03
2019-04-20T23:32:30.262Z,57.21
2019-04-20T23:33:29.854Z,56.74
2019-04-20T23:34:32.374Z,57.12
2019-04-20T23:35:30.343Z,57.21
2019-04-20T23:36:36.497Z,57.70
2019-04-20T23:37:32.963Z,57.95
2019-04-20T23:38:30.548Z,58.15
2019-04-20T23:39:35.398Z,59.20
2019-04-20T23:40:29.869Z,59.30
2019-04-20T23:41:29.228Z,59.68
2019-04-20T23:42:33.644Z,60.06
2019-04-20T23:43:33.368Z,60.06
2019-04-20T23:44:29.371Z,60.16
2019-04-20T23:45:38.569Z,60.83
2019-04-20T23:46:31.386Z,61.11
2019-04-20T23:47:30.083Z,61.40
2019-04-20T23:48:34.852Z,61.40
2019-04-20T23:49:37.575Z,61.50
2019-04-20T23:50:47.669Z,62.17
2019-04-20T23:51:49.347Z,62.17
2019-04-20T23:52:49.088Z,62.07
2019-04-20T23:53:43.810Z,62.14
2019-04-20T23:54:33.138Z,62.33
2019-04-20T23:55:29.757Z,62.14
2019-04-20T23:56:29.964Z,62.23
2019-04-20T23:57:29.394Z,62.33
2019-04-20T23:58:30.902Z,63.00
2019-04-20T23:59:34.321Z,62.81
